Latest Coastal Weather Observations for Hogan Island

IDT60701

Issued at 1:25 pm EDT Friday 21 November 2014 (issued every 10 minutes, with the page automatically refreshed every 10 minutes)

About coastal observations | Map of coastal stations | Coastal observations for TAS | Marine services | Other Formats
Station Details ID: 200838 Name: HOGAN ISLAND Lat: -39.22 Lon: 146.98 Height: 116.0 m
Data from the previous 72 hours. | See also: Recent months at Hogan Island
Date/Time
EDT
Temp

°C
Wind Pressure Rain
since 9am
mm
Weather Cloud Vis
km
Sea
Height
m
Swell
Dir
 
Speed
knots
Gust
knots
hPa Trend Height
m
Period
s
Dir
21/01:00pm 16.1 W 29 34 1009.5 - 0.0 - - - - - - -
21/12:30pm 15.6 W 31 35 1009.4 - 0.0 - - - - - - -
21/12:00pm 15.7 W 29 34 1009.4 - 0.0 - - - - - - -
21/11:30am 15.7 WSW 27 31 1009.3 - 0.0 - - - - - - -
21/11:00am 15.5 WSW 28 35 1008.9 - 0.0 - - - - - - -
21/10:30am 15.4 WSW 31 36 1008.5 - 0.0 - - - - - - -
21/10:00am 15.2 WSW 32 37 1008.1 - 0.0 - - - - - - -
21/09:30am 14.7 W 33 37 1007.3 - 0.0 - - - - - - -
21/09:00am 14.5 W 26 30 1007.4 - 1.6 - - - - - - -
21/08:30am 14.6 W 27 32 1006.9 - 1.6 - - - - - - -
21/08:00am 14.6 W 25 29 1006.2 - 1.6 - - - - - - -
21/07:30am 14.5 W 28 33 1005.7 - 1.6 - - - - - - -
21/07:00am 14.0 W 29 34 1005.3 - 1.6 - - - - - - -
21/06:30am 14.2 W 26 31 1005.3 - 1.6 - - - - - - -
21/06:00am 14.0 W 26 29 1004.7 - 1.6 - - - - - - -
21/05:30am 13.9 W 20 24 1004.4 - 1.6 - - - - - - -
21/05:00am 14.1 W 26 30 1003.7 - 1.6 - - - - - - -
21/04:30am 14.3 W 24 29 1003.6 - 1.6 - - - - - - -
21/04:00am 15.0 W 22 28 1003.5 - 1.6 - - - - - - -
21/03:30am 15.6 W 26 32 1003.3 - 1.6 - - - - - - -
21/03:18am 16.0 WNW 20 27 1003.3 - 1.6 - - - - - - -
21/03:00am 15.9 NNW 18 21 1003.2 - 1.6 - - - - - - -
21/02:30am 15.5 NNW 15 21 1003.5 - 1.6 - - - - - - -
21/02:00am 15.7 N 17 23 1003.5 - 1.6 - - - - - - -
21/01:30am 15.5 N 16 24 1003.6 - 1.6 - - - - - - -
21/01:12am 16.1 N 19 29 1003.7 - 1.6 - - - - - - -
21/01:00am 16.1 N 20 27 1003.8 - 1.6 - - - - - - -
21/12:30am 16.9 N 20 25 1004.0 - 1.6 - - - - - - -
21/12:00am 16.4 N 20 23 1004.3 - 1.6 - - - - - - -
 
Date/Time
EDT
Temp

°C
Wind Pressure Rain
since 9am
mm
Weather Cloud Vis
km
Sea
Height
m
Swell
Dir
 
Speed
knots
Gust
knots
hPa Trend Height
m
Period
s
Dir
20/11:30pm 16.6 N 17 23 1004.6 - 1.6 - - - - - - -
20/11:00pm 15.6 N 16 21 1005.0 - 1.6 - - - - - - -
20/10:30pm 14.4 NNE 12 14 1005.4 - 1.6 - - - - - - -
20/10:00pm 14.7 NNE 9 15 1006.2 - 1.4 - - - - - - -
20/09:30pm 15.2 WSW 6 9 1006.7 - 1.4 - - - - - - -
20/09:00pm 14.9 SW 7 9 1006.5 - 0.8 - - - - - - -
20/08:30pm 14.8 SW 11 13 1006.8 - 0.4 - - - - - - -
20/08:00pm 14.9 WSW 19 23 1006.9 - 0.0 - - - - - - -
20/07:30pm 15.2 W 24 27 1006.8 - 0.0 - - - - - - -
20/07:00pm 15.8 W 26 30 1006.6 - 0.0 - - - - - - -
20/06:30pm 16.7 W 22 25 1006.1 - 0.0 - - - - - - -
20/06:00pm 17.3 W 27 31 1005.8 - 0.0 - - - - - - -
20/05:30pm 18.4 W 30 37 1005.3 - 0.0 - - - - - - -
20/05:00pm 19.2 W 22 27 1005.6 - 0.0 - - - - - - -
20/04:30pm 20.4 WSW 19 22 1005.6 - 0.0 - - - - - - -
20/04:00pm 20.0 WSW 17 19 1005.5 - 0.0 - - - - - - -
20/03:30pm 22.2 WNW 6 12 1005.0 - 0.0 - - - - - - -
20/03:00pm 23.2 E 3 5 1004.6 - 0.0 - - - - - - -
20/02:30pm 22.6 E 7 9 1004.6 - 0.0 - - - - - - -
20/02:00pm 22.4 ENE 6 8 1004.6 - 0.0 - - - - - - -
20/01:30pm 22.2 E 3 5 1005.2 - 0.0 - - - - - - -
20/01:00pm 22.4 W 2 4 1005.5 - 0.0 - - - - - - -
20/12:30pm 24.3 N 7 9 1005.6 - 0.0 - - - - - - -
20/12:00pm 22.4 N 10 13 1005.6 - 0.0 - - - - - - -
20/11:30am 20.9 N 17 20 1005.5 - 0.0 - - - - - - -
20/11:00am 21.4 N 17 20 1005.8 - 0.0 - - - - - - -
20/10:30am 21.6 N 16 19 1006.1 - 0.0 - - - - - - -
20/10:00am 19.9 N 14 18 1006.5 - 0.0 - - - - - - -
20/09:30am 18.8 N 16 19 1006.6 - 0.0 - - - - - - -
20/09:00am 22.3 N 16 19 1006.7 - 0.0 - - - - - - -
20/08:30am 20.1 N 20 23 1007.0 - 0.0 - - - - - - -
20/08:00am 20.0 N 20 23 1006.9 - 0.0 - - - - - - -
20/07:30am 18.7 N 18 21 1007.1 - 0.0 - - - - - - -
20/07:00am 17.4 N 19 23 1007.3 - 0.0 - - - - - - -
20/06:30am 17.2 N 19 24 1007.3 - 0.0 - - - - - - -
20/06:00am 16.3 N 19 22 1007.2 - 0.0 - - - - - - -
20/05:30am 15.9 N 18 22 1007.4 - 0.0 - - - - - - -
20/05:00am 15.8 N 19 23 1007.5 - 0.0 - - - - - - -
20/04:30am 15.5 N 19 23 1007.7 - 0.0 - - - - - - -
20/04:00am 15.6 N 21 25 1008.0 - 0.0 - - - - - - -
20/03:30am 14.8 NNE 18 22 1008.1 - 0.0 - - - - - - -
20/03:00am 14.4 NNE 16 18 1008.3 - 0.0 - - - - - - -
20/02:30am 14.1 NNE 16 17 1008.8 - 0.0 - - - - - - -
20/02:00am 14.0 NNE 14 16 1009.5 - 0.0 - - - - - - -
20/01:30am 14.1 NNE 13 15 1010.4 - 0.0 - - - - - - -
20/01:00am 13.9 NNE 13 16 1011.4 - 0.0 - - - - - - -
20/12:30am 14.1 NNE 14 16 1011.6 - 0.0 - - - - - - -
20/12:00am 14.0 NNE 15 18 1012.0 - 0.0 - - - - - - -
 
Date/Time
EDT
Temp

°C
Wind Pressure Rain
since 9am
mm
Weather Cloud Vis
km
Sea
Height
m
Swell
Dir
 
Speed
knots
Gust
knots
hPa Trend Height
m
Period
s
Dir
19/11:30pm 13.9 NNE 14 17 1012.6 - 0.0 - - - - - - -
19/11:00pm 13.8 NNE 14 16 1013.2 - 0.0 - - - - - - -
19/10:30pm 13.9 NNE 13 16 1013.4 - 0.0 - - - - - - -
19/10:00pm 13.8 NNE 13 15 1013.7 - 0.0 - - - - - - -
19/09:30pm 13.5 NNE 12 15 1013.4 - 0.0 - - - - - - -
19/09:00pm 13.5 NNE 14 16 1013.2 - 0.0 - - - - - - -
19/08:30pm 13.3 NNE 13 16 1013.7 - 0.0 - - - - - - -
19/08:00pm 13.5 NNE 15 17 1013.5 - 0.0 - - - - - - -
19/07:30pm 13.8 NE 12 14 1013.7 - 0.0 - - - - - - -
19/07:00pm 14.4 ENE 11 12 1013.8 - 0.0 - - - - - - -
19/06:30pm 15.1 NE 10 11 1013.9 - 0.0 - - - - - - -
19/06:00pm 15.7 NE 9 11 1014.0 - 0.0 - - - - - - -
19/05:30pm 15.7 ENE 9 11 1014.4 - 0.0 - - - - - - -
19/05:00pm 16.5 NE 8 11 1014.8 - 0.0 - - - - - - -
19/04:30pm 16.5 ENE 6 8 1015.3 - 0.0 - - - - - - -
19/04:00pm 17.2 NE 6 9 1015.5 - 0.0 - - - - - - -
19/03:30pm 16.6 NE 9 11 1015.6 - 0.0 - - - - - - -
19/03:00pm 17.9 NNE 10 12 1015.7 - 0.0 - - - - - - -
19/02:30pm 17.2 NNE 10 14 1016.4 - 0.0 - - - - - - -
19/02:00pm 17.5 NNE 9 13 1016.9 - 0.0 - - - - - - -
19/01:30pm 16.8 NNE 8 11 1017.3 - 0.0 - - - - - - -
19/01:00pm 17.1 NNE 10 12 1017.5 - 0.0 - - - - - - -
19/12:30pm 16.7 NNW 8 11 1017.9 - 0.0 - - - - - - -
19/12:00pm 16.4 NNW 7 11 1018.4 - 0.0 - - - - - - -
19/11:30am 16.0 NW 7 11 1018.9 - 0.0 - - - - - - -
19/11:00am 15.6 NW 7 10 1019.2 - 0.0 - - - - - - -
19/10:30am 15.2 WNW 6 8 1019.4 - 0.0 - - - - - - -
19/10:00am 15.1 NW 7 10 1019.5 - 0.0 - - - - - - -
19/09:30am 14.2 W 8 9 1019.9 - 0.0 - - - - - - -
19/09:00am 13.8 W 8 9 1019.7 - 0.0 - - - - - - -
19/08:30am 13.5 W 11 13 1019.7 - 0.0 - - - - - - -
19/08:00am 13.6 W 11 14 1019.5 - 0.0 - - - - - - -
19/07:30am 13.0 W 13 15 1019.6 - 0.0 - - - - - - -
19/07:00am 12.8 W 12 14 1019.6 - 0.0 - - - - - - -
19/06:30am 12.5 W 13 17 1019.5 - 0.0 - - - - - - -
19/06:00am 12.1 W 14 17 1019.4 - 0.0 - - - - - - -
19/05:30am 12.1 W 14 17 1019.3 - 0.0 - - - - - - -
19/05:00am 12.0 W 16 20 1019.1 - 0.0 - - - - - - -
19/04:30am 12.1 W 17 20 1019.1 - 0.0 - - - - - - -
19/04:00am 12.2 W 17 22 1019.3 - 0.0 - - - - - - -
19/03:30am 12.2 WSW 19 23 1019.4 - 0.0 - - - - - - -
19/03:00am 12.3 W 20 24 1019.4 - 0.0 - - - - - - -
19/02:30am 12.2 W 21 27 1019.9 - 0.0 - - - - - - -
19/02:00am 12.4 W 23 28 1020.0 - 0.0 - - - - - - -
19/01:30am 12.4 W 23 26 1020.3 - 0.0 - - - - - - -
19/01:00am 12.8 W 23 27 1020.6 - 0.0 - - - - - - -
19/12:30am 12.6 W 24 27 1020.7 - 0.0 - - - - - - -
19/12:00am 12.5 WSW 22 25 1020.9 - 0.0 - - - - - - -
 
Date/Time
EDT
Temp

°C
Wind Pressure Rain
since 9am
mm
Weather Cloud Vis
km
Sea
Height
m
Swell
Dir
 
Speed
knots
Gust
knots
hPa Trend Height
m
Period
s
Dir
18/11:30pm 12.3 WSW 21 26 1020.9 - 0.0 - - - - - - -
18/11:00pm 12.3 WSW 22 26 1021.0 - 0.0 - - - - - - -
18/10:30pm 12.4 WSW 23 25 1021.1 - 0.0 - - - - - - -
18/10:00pm 12.4 WSW 24 27 1021.0 - 0.0 - - - - - - -
18/09:30pm 12.5 W 24 27 1020.7 - 0.0 - - - - - - -
18/09:00pm 12.6 W 24 27 1020.5 - 0.0 - - - - - - -
18/08:30pm 12.4 W 26 29 1020.2 - 0.0 - - - - - - -
18/08:00pm 12.7 W 26 29 1019.7 - 0.0 - - - - - - -
18/07:30pm 13.2 WSW 25 30 1019.6 - 0.0 - - - - - - -
18/07:00pm 13.8 W 26 30 1019.1 - 0.0 - - - - - - -
18/06:30pm 14.1 WSW 27 31 1018.9 - 0.0 - - - - - - -
18/06:00pm 14.3 W 29 34 1018.7 - 0.0 - - - - - - -
18/05:30pm 14.3 W 31 35 1018.7 - 0.0 - - - - - - -
18/05:00pm 13.7 W 32 37 1018.6 - 0.0 - - - - - - -
18/04:30pm 14.7 W 26 31 1018.6 - 0.0 - - - - - - -
18/04:00pm 15.1 W 27 31 1018.4 - 0.0 - - - - - - -
18/03:30pm 15.0 W 28 32 1018.5 - 0.0 - - - - - - -
18/03:00pm 15.7 W 30 35 1018.3 - 0.0 - - - - - - -
18/02:30pm 16.4 W 30 34 1018.2 - 0.0 - - - - - - -
18/02:00pm 16.1 W 28 33 1018.3 - 0.0 - - - - - - -
18/01:30pm 15.4 W 30 33 1018.3 - 0.0 - - - - - - -

Other Formats:

Comma delimited format used in spreadsheet applications
http://www.bom.gov.au/fwo/IDT60701/IDT60701.94949.axf

JavaScript Object Notation format (JSON) in row-major order
http://www.bom.gov.au/fwo/IDT60701/IDT60701.94949.json